Webcam 1 more information Webcam 1


Webcam 2 more information Webcam 2


altri nostri siti meteo:

Pomeziameteo 1Sito sul meteo

Pomeziameteo DashboardSito sul meteo

Caput FrigorisSito sul meteo

BarcellonameteoSito sul meteo

MeteoipassiSito sul meteo

ViterbometeoSito sul meteo

MeteotortoretoSito sul meteo

Stazione LineameteoSito sul meteo



Nessuna attenzione particolare richiesta.    Non ci sono allerte meteo

Notice: Undefined offset: 6 in /web/htdocs/www.castelnuovovomanometeo.it/home/weather28/metar/metarDisplay.php on line 76

Notice: Undefined offset: 5 in /web/htdocs/www.castelnuovovomanometeo.it/home/weather28/metar/metarDisplay.php on line 76

Report METAR

   
LIBP - Pescara
Dati ricevuti: 23-01-2020 11:50
Sereno  
Sereno  
   Vento: NE 5.6 km/h
Vento: NE 5.6 km/h
Temperatura: 12°C
P.to Rugiada: 5°C
Umidita: 63%
Barometro: 1032 hPa
Visibilita: oltre 10 km
dettagli cloud: Sereno
LIBP 231050Z 07003KT 010V120 CAVOK 12/05 Q1032
LIRZ - Perugia
Dati ricevuti: 23-01-2020 12:50
Parzialmente nuvoloso  
Parzialmente nuvoloso  
   Vento: S 5.6 km/h
Vento: S 5.6 km/h
Temperatura: 7°C
Temperatura Vento: 6°C
P.to Rugiada: 4°C
Umidita: 81%
Barometro: 1029 hPa
Nuvole: Parzialmente nuvoloso
Visibilita: 9 km
dettagli cloud: Parzialmente nuvoloso
LIRZ 231150Z 20003KT 150V250 9000 NSC 07/04 Q1029
LIQN - Rieti
Dati ricevuti: 23-01-2020 12:50
Sereno  
Sereno  
   Vento: Variabile 3.7 km/h
Vento: Variabile 3.7 km/h
Temperatura: 8°C
P.to Rugiada: 5°C
Umidita: 82%
Barometro: 1028 hPa
Visibilita: oltre 10 km
dettagli cloud: Sereno
LIQN 231150Z VRB02KT CAVOK 08/05 Q1028
LIPY - Falconara
Dati ricevuti: 23-01-2020 12:50
Sereno  
Sereno  
   Vento: NNW 11.1 km/h
Vento: NNW 11.1 km/h
Temperatura: 10°C
Temperatura Vento: 8°C
P.to Rugiada: 6°C
Umidita: 76%
Barometro: 1031 hPa
Visibilita: oltre 10 km
dettagli cloud: Sereno
LIPY 231150Z 34006KT 310V010 CAVOK 10/06 Q1031
  

Script sviluppato da  Saratoga-weather.org Adattato per il modello da  Weerstation Leuven

Potete trovare le nostre info meteo anche a:

Weather Underground

AWEKAS

Citizen Weather Observer Program (CWOP)

HAMweather, WeatherForYou, PWS Weather

Strumentazione usata:

Stazione meteo
Oregon 928

Programma gestore dati meteo
WVIEW

Server per i dati meteo
Pc-WDS5

Oregon 928

WVIEW

Pc-WDS5